sensor_id;sensor_type;location;lat;lon;timestamp;pressure;altitude;pressure_sealevel;temperature;humidity
9893;BME280;4985;49.092;8.542;2023-07-20T00:02:26;99199.50;;;23.13;38.97
9893;BME280;4985;49.092;8.542;2023-07-20T00:04:52;99189.00;;;23.11;38.95
9893;BME280;4985;49.092;8.542;2023-07-20T00:07:19;99189.22;;;23.10;39.03
9893;BME280;4985;49.092;8.542;2023-07-20T00:09:46;99193.78;;;23.09;39.02
9893;BME280;4985;49.092;8.542;2023-07-20T00:12:13;99196.16;;;23.06;38.96
9893;BME280;4985;49.092;8.542;2023-07-20T00:14:40;99196.91;;;23.01;39.05
9893;BME280;4985;49.092;8.542;2023-07-20T00:17:07;99200.66;;;23.00;39.17
9893;BME280;4985;49.092;8.542;2023-07-20T00:19:34;99198.53;;;23.02;39.29
9893;BME280;4985;49.092;8.542;2023-07-20T00:22:01;99200.16;;;23.03;39.39
9893;BME280;4985;49.092;8.542;2023-07-20T00:24:30;99192.09;;;23.03;39.52
9893;BME280;4985;49.092;8.542;2023-07-20T00:26:57;99190.47;;;23.02;39.58
9893;BME280;4985;49.092;8.542;2023-07-20T00:29:24;99189.66;;;23.02;39.65
9893;BME280;4985;49.092;8.542;2023-07-20T00:31:50;99190.47;;;23.02;39.71
9893;BME280;4985;49.092;8.542;2023-07-20T00:34:18;99198.53;;;23.02;39.80
9893;BME280;4985;49.092;8.542;2023-07-20T00:36:45;99197.47;;;23.03;39.93
9893;BME280;4985;49.092;8.542;2023-07-20T00:39:11;99200.16;;;23.03;39.96
9893;BME280;4985;49.092;8.542;2023-07-20T00:41:38;99201.22;;;23.02;39.89
9893;BME280;4985;49.092;8.542;2023-07-20T00:44:05;99196.09;;;23.01;40.02
9893;BME280;4985;49.092;8.542;2023-07-20T00:46:32;99193.66;;;22.99;40.11
9893;BME280;4985;49.092;8.542;2023-07-20T00:48:59;99189.91;;;23.00;40.18
9893;BME280;4985;49.092;8.542;2023-07-20T00:51:28;99192.59;;;23.00;40.22
9893;BME280;4985;49.092;8.542;2023-07-20T00:53:55;99197.38;;;22.98;40.25
9893;BME280;4985;49.092;8.542;2023-07-20T00:56:22;99201.72;;;22.99;40.23
9893;BME280;4985;49.092;8.542;2023-07-20T00:58:48;99200.06;;;22.98;40.32
9893;BME280;4985;49.092;8.542;2023-07-20T01:01:15;99184.66;;;22.88;40.25
9893;BME280;4985;49.092;8.542;2023-07-20T01:03:41;99196.25;;;22.94;40.12
9893;BME280;4985;49.092;8.542;2023-07-20T01:06:16;99194.06;;;22.91;40.10
9893;BME280;4985;49.092;8.542;2023-07-20T01:08:53;99197.56;;;22.91;40.24
9893;BME280;4985;49.092;8.542;2023-07-20T01:11:28;99199.09;;;22.87;40.13
9893;BME280;4985;49.092;8.542;2023-07-20T01:13:57;99202.28;;;22.84;40.14
9893;BME280;4985;49.092;8.542;2023-07-20T01:16:24;99205.19;;;22.83;40.18
9893;BME280;4985;49.092;8.542;2023-07-20T01:18:50;99203.56;;;22.82;40.29
9893;BME280;4985;49.092;8.542;2023-07-20T01:21:30;99198.19;;;22.82;40.36
9893;BME280;4985;49.092;8.542;2023-07-20T01:24:16;99200.06;;;22.81;40.38
9893;BME280;4985;49.092;8.542;2023-07-20T01:27:04;99201.94;;;22.81;40.44
9893;BME280;4985;49.092;8.542;2023-07-20T01:29:52;99201.94;;;22.81;40.45
9893;BME280;4985;49.092;8.542;2023-07-20T01:32:23;99193.31;;;22.79;40.55
9893;BME280;4985;49.092;8.542;2023-07-20T01:34:52;99196.56;;;22.81;40.62
9893;BME280;4985;49.092;8.542;2023-07-20T01:37:20;99192.50;;;22.78;40.80
9893;BME280;4985;49.092;8.542;2023-07-20T01:39:52;99195.75;;;22.80;40.84
9893;BME280;4985;49.092;8.542;2023-07-20T01:42:21;99189.56;;;22.80;40.86
9893;BME280;4985;49.092;8.542;2023-07-20T01:44:50;99190.63;;;22.79;40.90
9893;BME280;4985;49.092;8.542;2023-07-20T01:47:16;99194.13;;;22.79;40.95
9893;BME280;4985;49.092;8.542;2023-07-20T01:49:44;99193.31;;;22.79;40.99
9893;BME280;4985;49.092;8.542;2023-07-20T01:52:11;99201.37;;;22.79;41.07
9893;BME280;4985;49.092;8.542;2023-07-20T01:54:37;99190.06;;;22.77;41.12
9893;BME280;4985;49.092;8.542;2023-07-20T01:57:04;99199.75;;;22.78;41.11
9893;BME280;4985;49.092;8.542;2023-07-20T01:59:31;99187.16;;;22.78;41.12
9893;BME280;4985;49.092;8.542;2023-07-20T02:01:58;99193.78;;;22.76;40.94
9893;BME280;4985;49.092;8.542;2023-07-20T02:04:24;99196.97;;;22.73;40.95
9893;BME280;4985;49.092;8.542;2023-07-20T02:06:52;99198.28;;;22.70;41.00
9893;BME280;4985;49.092;8.542;2023-07-20T02:09:19;99194.78;;;22.70;41.11
9893;BME280;4985;49.092;8.542;2023-07-20T02:11:46;99196.91;;;22.67;41.24
9893;BME280;4985;49.092;8.542;2023-07-20T02:14:12;99188.84;;;22.67;41.32
9893;BME280;4985;49.092;8.542;2023-07-20T02:16:39;99190.72;;;22.67;41.41
9893;BME280;4985;49.092;8.542;2023-07-20T02:19:05;99198.19;;;22.65;41.47
9893;BME280;4985;49.092;8.542;2023-07-20T02:21:32;99192.00;;;22.64;41.47
9893;BME280;4985;49.092;8.542;2023-07-20T02:24:00;99192.81;;;22.65;41.58
9893;BME280;4985;49.092;8.542;2023-07-20T02:26:27;99194.94;;;22.63;41.65
9893;BME280;4985;49.092;8.542;2023-07-20T02:28:53;99194.63;;;22.59;41.70
9893;BME280;4985;49.092;8.542;2023-07-20T02:33:46;99195.91;;;22.57;41.49
9893;BME280;4985;49.092;8.542;2023-07-20T02:36:13;99198.84;;;22.55;41.56
9893;BME280;4985;49.092;8.542;2023-07-20T02:38:39;99198.84;;;22.55;41.64
9893;BME280;4985;49.092;8.542;2023-07-20T02:41:07;99199.66;;;22.56;41.79
9893;BME280;4985;49.092;8.542;2023-07-20T02:43:34;99204.78;;;22.57;41.96
9893;BME280;4985;49.092;8.542;2023-07-20T02:46:00;99196.41;;;22.54;42.00
9893;BME280;4985;49.092;8.542;2023-07-20T02:48:27;99198.50;;;22.52;42.01
9893;BME280;4985;49.092;8.542;2023-07-20T02:50:53;99196.06;;;22.50;42.04
9893;BME280;4985;49.092;8.542;2023-07-20T02:53:20;99199.00;;;22.49;42.04
9893;BME280;4985;49.092;8.542;2023-07-20T02:55:46;99198.75;;;22.50;42.08
9893;BME280;4985;49.092;8.542;2023-07-20T02:58:14;99208.41;;;22.51;42.06
9893;BME280;4985;49.092;8.542;2023-07-20T03:00:42;99201.44;;;22.50;42.03
9893;BME280;4985;49.092;8.542;2023-07-20T03:03:08;99196.88;;;22.51;41.97
9893;BME280;4985;49.092;8.542;2023-07-20T03:05:35;99200.87;;;22.48;41.98
9893;BME280;4985;49.092;8.542;2023-07-20T03:08:03;99208.09;;;22.48;41.98
9893;BME280;4985;49.092;8.542;2023-07-20T03:10:31;99218.03;;;22.47;42.04
9893;BME280;4985;49.092;8.542;2023-07-20T03:12:58;99216.41;;;22.46;42.01
9893;BME280;4985;49.092;8.542;2023-07-20T03:15:26;99215.59;;;22.46;42.06
9893;BME280;4985;49.092;8.542;2023-07-20T03:17:52;99211.53;;;22.43;42.11
9893;BME280;4985;49.092;8.542;2023-07-20T03:20:19;99207.19;;;22.42;42.21
9893;BME280;4985;49.092;8.542;2023-07-20T03:22:46;99209.31;;;22.40;42.27
9893;BME280;4985;49.092;8.542;2023-07-20T03:25:12;99213.28;;;22.37;42.38
9893;BME280;4985;49.092;8.542;2023-07-20T03:27:39;99210.03;;;22.35;42.41
9893;BME280;4985;49.092;8.542;2023-07-20T03:30:07;99210.84;;;22.36;42.47
9893;BME280;4985;49.092;8.542;2023-07-20T03:32:36;99216.72;;;22.33;42.54
9893;BME280;4985;49.092;8.542;2023-07-20T03:35:03;99211.81;;;22.30;42.74
9893;BME280;4985;49.092;8.542;2023-07-20T03:37:30;99222.69;;;22.23;42.95
9893;BME280;4985;49.092;8.542;2023-07-20T03:39:56;99219.56;;;22.15;43.17
9893;BME280;4985;49.092;8.542;2023-07-20T03:42:23;99224.03;;;22.09;43.38
9893;BME280;4985;49.092;8.542;2023-07-20T03:44:49;99222.28;;;22.03;43.48
9893;BME280;4985;49.092;8.542;2023-07-20T03:47:16;99231.94;;;22.04;43.49
9893;BME280;4985;49.092;8.542;2023-07-20T03:49:44;99225.19;;;22.01;43.53
9893;BME280;4985;49.092;8.542;2023-07-20T03:52:11;99228.56;;;21.97;43.70
9893;BME280;4985;49.092;8.542;2023-07-20T03:54:37;99229.31;;;21.92;43.82
9893;BME280;4985;49.092;8.542;2023-07-20T03:57:04;99232.47;;;21.89;43.94
9893;BME280;4985;49.092;8.542;2023-07-20T03:59:31;99236.19;;;21.88;43.91
9893;BME280;4985;49.092;8.542;2023-07-20T04:01:58;99230.34;;;21.91;43.83
9893;BME280;4985;49.092;8.542;2023-07-20T04:04:25;99238.72;;;21.95;43.83
9893;BME280;4985;49.092;8.542;2023-07-20T04:06:53;99239.78;;;21.94;43.93
9893;BME280;4985;49.092;8.542;2023-07-20T04:09:20;99240.03;;;21.92;43.99
9893;BME280;4985;49.092;8.542;2023-07-20T04:11:46;99246.44;;;21.91;44.12
9893;BME280;4985;49.092;8.542;2023-07-20T04:14:13;99247.25;;;21.92;44.13
9893;BME280;4985;49.092;8.542;2023-07-20T04:16:39;99253.44;;;21.92;44.15
9893;BME280;4985;49.092;8.542;2023-07-20T04:19:06;99245.63;;;21.91;44.21
9893;BME280;4985;49.092;8.542;2023-07-20T04:21:32;99246.44;;;21.91;44.33
9893;BME280;4985;49.092;8.542;2023-07-20T04:24:00;99245.63;;;21.91;44.55
9893;BME280;4985;49.092;8.542;2023-07-20T04:26:27;99246.09;;;21.88;44.73
9893;BME280;4985;49.092;8.542;2023-07-20T04:28:53;99237.47;;;21.86;44.91
9893;BME280;4985;49.092;8.542;2023-07-20T04:31:20;99242.81;;;21.86;44.94
9893;BME280;4985;49.092;8.542;2023-07-20T04:33:46;99242.81;;;21.86;45.04
9893;BME280;4985;49.092;8.542;2023-07-20T04:36:13;99245.75;;;21.84;45.16
9893;BME280;4985;49.092;8.542;2023-07-20T04:38:41;99249.72;;;21.82;45.23
9893;BME280;4985;49.092;8.542;2023-07-20T04:41:09;99249.97;;;21.80;45.29
9893;BME280;4985;49.092;8.542;2023-07-20T04:43:41;99245.66;;;21.79;45.33
9893;BME280;4985;49.092;8.542;2023-07-20T04:46:07;99247.75;;;21.77;45.34
9893;BME280;4985;49.092;8.542;2023-07-20T04:48:34;99251.25;;;21.77;45.34
9893;BME280;4985;49.092;8.542;2023-07-20T04:51:00;99246.13;;;21.76;45.59
9893;BME280;4985;49.092;8.542;2023-07-20T04:53:27;99254.19;;;21.76;45.61
9893;BME280;4985;49.092;8.542;2023-07-20T04:55:54;99248.47;;;21.72;45.79
9893;BME280;4985;49.092;8.542;2023-07-20T04:58:22;99250.91;;;21.74;45.72
9893;BME280;4985;49.092;8.542;2023-07-20T05:00:49;99243.91;;;21.73;45.82
9893;BME280;4985;49.092;8.542;2023-07-20T05:03:16;99247.41;;;21.73;45.95
9893;BME280;4985;49.092;8.542;2023-07-20T05:05:43;99251.38;;;21.71;46.04
9893;BME280;4985;49.092;8.542;2023-07-20T05:08:09;99252.19;;;21.71;46.05
9893;BME280;4985;49.092;8.542;2023-07-20T05:10:36;99244.97;;;21.72;46.03
9893;BME280;4985;49.092;8.542;2023-07-20T05:13:02;99244.16;;;21.71;45.97
9893;BME280;4985;49.092;8.542;2023-07-20T05:15:32;99251.12;;;21.72;45.93
9893;BME280;4985;49.092;8.542;2023-07-20T05:17:59;99246.59;;;21.73;45.88
9893;BME280;4985;49.092;8.542;2023-07-20T05:20:26;99259.97;;;21.73;45.78
9893;BME280;4985;49.092;8.542;2023-07-20T05:22:52;99250.31;;;21.72;45.67
9893;BME280;4985;49.092;8.542;2023-07-20T05:25:19;99242.84;;;21.74;45.58
9893;BME280;4985;49.092;8.542;2023-07-20T05:27:48;99241.59;;;21.76;45.67
9893;BME280;4985;49.092;8.542;2023-07-20T05:30:14;99246.34;;;21.74;45.73
9893;BME280;4985;49.092;8.542;2023-07-20T05:32:42;99252.56;;;21.75;45.47
9893;BME280;4985;49.092;8.542;2023-07-20T05:35:10;99251.50;;;21.76;45.64
9893;BME280;4985;49.092;8.542;2023-07-20T05:37:37;99247.53;;;21.78;45.60
9893;BME280;4985;49.092;8.542;2023-07-20T05:40:05;99249.72;;;21.82;45.55
9893;BME280;4985;49.092;8.542;2023-07-20T05:42:33;99252.16;;;21.83;45.50
9893;BME280;4985;49.092;8.542;2023-07-20T05:44:59;99252.72;;;21.85;45.42
9893;BME280;4985;49.092;8.542;2023-07-20T05:47:26;99247.16;;;21.87;45.37
9893;BME280;4985;49.092;8.542;2023-07-20T05:49:54;99250.16;;;21.90;45.32
9893;BME280;4985;49.092;8.542;2023-07-20T05:52:20;99244.81;;;21.90;45.28
9893;BME280;4985;49.092;8.542;2023-07-20T05:54:47;99237.34;;;21.92;45.25
9893;BME280;4985;49.092;8.542;2023-07-20T05:57:13;99239.78;;;21.94;45.23
9893;BME280;4985;49.092;8.542;2023-07-20T05:59:40;99238.72;;;21.95;45.21
9893;BME280;4985;49.092;8.542;2023-07-20T06:02:09;99245.97;;;21.94;45.19
9893;BME280;4985;49.092;8.542;2023-07-20T06:04:36;99245.50;;;21.97;45.19
9893;BME280;4985;49.092;8.542;2023-07-20T06:07:04;99244.66;;;21.97;45.16
9893;BME280;4985;49.092;8.542;2023-07-20T06:09:30;99243.38;;;21.99;45.14
9893;BME280;4985;49.092;8.542;2023-07-20T06:11:57;99248.75;;;21.99;45.12
9893;BME280;4985;49.092;8.542;2023-07-20T06:14:24;99249.31;;;22.01;45.11
9893;BME280;4985;49.092;8.542;2023-07-20T06:16:50;99248.28;;;22.02;45.10
9893;BME280;4985;49.092;8.542;2023-07-20T06:19:17;99247.22;;;22.03;45.09
9893;BME280;4985;49.092;8.542;2023-07-20T06:21:43;99246.97;;;22.05;45.07
9893;BME280;4985;49.092;8.542;2023-07-20T06:24:11;99249.44;;;22.06;45.06
9893;BME280;4985;49.092;8.542;2023-07-20T06:26:39;99248.63;;;22.06;45.05
9893;BME280;4985;49.092;8.542;2023-07-20T06:29:06;99246.50;;;22.08;45.04
9893;BME280;4985;49.092;8.542;2023-07-20T06:31:34;99248.16;;;22.09;45.03
9893;BME280;4985;49.092;8.542;2023-07-20T06:34:01;99249.44;;;22.06;45.01
9893;BME280;4985;49.092;8.542;2023-07-20T06:36:27;99247.94;;;22.11;45.00
9893;BME280;4985;49.092;8.542;2023-07-20T06:38:54;99253.28;;;22.11;45.00
9893;BME280;4985;49.092;8.542;2023-07-20T06:41:22;99252.25;;;22.12;45.00
9893;BME280;4985;49.092;8.542;2023-07-20T06:43:49;99252.25;;;22.12;45.00
9893;BME280;4985;49.092;8.542;2023-07-20T06:46:17;99246.87;;;22.12;45.02
9893;BME280;4985;49.092;8.542;2023-07-20T06:48:44;99242.31;;;22.12;45.00
9893;BME280;4985;49.092;8.542;2023-07-20T06:51:10;99250.12;;;22.14;44.98
9893;BME280;4985;49.092;8.542;2023-07-20T06:53:37;99248.00;;;22.16;44.98
9893;BME280;4985;49.092;8.542;2023-07-20T06:56:04;99258.72;;;22.16;44.95
9893;BME280;4985;49.092;8.542;2023-07-20T06:58:32;99249.62;;;22.17;44.95
9893;BME280;4985;49.092;8.542;2023-07-20T07:00:59;99246.97;;;22.17;44.92
9893;BME280;4985;49.092;8.542;2023-07-20T07:03:25;99249.41;;;22.18;44.91
9893;BME280;4985;49.092;8.542;2023-07-20T07:05:55;99250.22;;;22.19;44.90
9893;BME280;4985;49.092;8.542;2023-07-20T07:08:21;99248.34;;;22.19;44.89
9893;BME280;4985;49.092;8.542;2023-07-20T07:10:48;99256.63;;;22.18;44.90
9893;BME280;4985;49.092;8.542;2023-07-20T07:13:14;99263.63;;;22.19;44.90
9893;BME280;4985;49.092;8.542;2023-07-20T07:15:42;99262.56;;;22.20;44.91
9893;BME280;4985;49.092;8.542;2023-07-20T07:18:09;99259.88;;;22.20;44.90
9893;BME280;4985;49.092;8.542;2023-07-20T07:20:36;99256.16;;;22.21;44.90
9893;BME280;4985;49.092;8.542;2023-07-20T07:23:02;99263.97;;;22.22;44.88
9893;BME280;4985;49.092;8.542;2023-07-20T07:25:29;99253.25;;;22.22;44.88
9893;BME280;4985;49.092;8.542;2023-07-20T07:27:56;99250.56;;;22.22;44.88
9893;BME280;4985;49.092;8.542;2023-07-20T07:30:23;99248.69;;;22.23;44.88
9893;BME280;4985;49.092;8.542;2023-07-20T07:32:51;99244.97;;;22.24;44.86
9893;BME280;4985;49.092;8.542;2023-07-20T07:35:17;99246.59;;;22.25;44.88
9893;BME280;4985;49.092;8.542;2023-07-20T07:37:44;99258.12;;;22.25;44.87
9893;BME280;4985;49.092;8.542;2023-07-20T07:40:12;99253.56;;;22.26;44.88
9893;BME280;4985;49.092;8.542;2023-07-20T07:42:39;99253.56;;;22.26;44.87
9893;BME280;4985;49.092;8.542;2023-07-20T07:45:07;99252.50;;;22.27;44.87
9893;BME280;4985;49.092;8.542;2023-07-20T07:47:34;99254.13;;;22.28;44.87
9893;BME280;4985;49.092;8.542;2023-07-20T07:50:02;99248.78;;;22.28;44.87
9893;BME280;4985;49.092;8.542;2023-07-20T07:52:29;99255.19;;;22.27;44.87
9893;BME280;4985;49.092;8.542;2023-07-20T07:54:56;99251.47;;;22.28;44.89
9893;BME280;4985;49.092;8.542;2023-07-20T07:57:22;99256.00;;;22.27;44.91
9893;BME280;4985;49.092;8.542;2023-07-20T07:59:49;99257.62;;;22.28;44.90
9893;BME280;4985;49.092;8.542;2023-07-20T08:02:15;99256.56;;;22.29;44.91
9893;BME280;4985;49.092;8.542;2023-07-20T08:04:42;99261.94;;;22.29;44.91
9893;BME280;4985;49.092;8.542;2023-07-20T08:07:10;99253.91;;;22.29;44.92
9893;BME280;4985;49.092;8.542;2023-07-20T08:09:37;99261.69;;;22.31;44.94
9893;BME280;4985;49.092;8.542;2023-07-20T08:12:04;99256.34;;;22.31;44.94
9893;BME280;4985;49.092;8.542;2023-07-20T08:14:31;99252.84;;;22.30;44.92
9893;BME280;4985;49.092;8.542;2023-07-20T08:16:57;99251.81;;;22.31;44.93
9893;BME280;4985;49.092;8.542;2023-07-20T08:19:24;99252.63;;;22.32;44.93
9893;BME280;4985;49.092;8.542;2023-07-20T08:21:50;99247.25;;;22.32;44.95
9893;BME280;4985;49.092;8.542;2023-07-20T08:24:18;99253.44;;;22.32;44.94
9893;BME280;4985;49.092;8.542;2023-07-20T08:26:45;99255.06;;;22.33;44.95
9893;BME280;4985;49.092;8.542;2023-07-20T08:29:12;99249.69;;;22.33;44.96
9893;BME280;4985;49.092;8.542;2023-07-20T08:31:38;99255.06;;;22.33;44.95
9893;BME280;4985;49.092;8.542;2023-07-20T08:34:05;99252.13;;;22.35;44.93
9893;BME280;4985;49.092;8.542;2023-07-20T08:36:32;99253.75;;;22.36;44.93
9893;BME280;4985;49.092;8.542;2023-07-20T08:38:58;99253.75;;;22.36;44.93
9893;BME280;4985;49.092;8.542;2023-07-20T08:41:26;99254.56;;;22.36;44.92
9893;BME280;4985;49.092;8.542;2023-07-20T08:43:54;99253.50;;;22.37;44.94
9893;BME280;4985;49.092;8.542;2023-07-20T08:46:23;99260.75;;;22.37;44.93
9893;BME280;4985;49.092;8.542;2023-07-20T08:48:51;99257.00;;;22.38;44.92
9893;BME280;4985;49.092;8.542;2023-07-20T08:51:19;99257.00;;;22.38;44.94
9893;BME280;4985;49.092;8.542;2023-07-20T08:53:47;99245.22;;;22.39;44.92
9893;BME280;4985;49.092;8.542;2023-07-20T08:56:18;99245.47;;;22.37;44.93
9893;BME280;4985;49.092;8.542;2023-07-20T08:58:47;99251.41;;;22.40;44.93
9893;BME280;4985;49.092;8.542;2023-07-20T09:01:14;99251.16;;;22.41;44.94
9893;BME280;4985;49.092;8.542;2023-07-20T09:03:41;99252.78;;;22.42;44.93
9893;BME280;4985;49.092;8.542;2023-07-20T09:06:08;99241.25;;;22.42;44.93
9893;BME280;4985;49.092;8.542;2023-07-20T09:08:37;99243.94;;;22.42;44.94
9893;BME280;4985;49.092;8.542;2023-07-20T09:11:04;99235.06;;;22.41;44.96
9893;BME280;4985;49.092;8.542;2023-07-20T09:13:32;99247.41;;;22.42;44.96
9893;BME280;4985;49.092;8.542;2023-07-20T09:16:00;99241.47;;;22.40;44.96
9893;BME280;4985;49.092;8.542;2023-07-20T09:18:28;99242.91;;;22.43;44.98
9893;BME280;4985;49.092;8.542;2023-07-20T09:20:58;99236.69;;;22.42;44.98
9893;BME280;4985;49.092;8.542;2023-07-20T09:23:30;99246.37;;;22.43;44.98
9893;BME280;4985;49.092;8.542;2023-07-20T09:25:57;99243.72;;;22.43;45.00
9893;BME280;4985;49.092;8.542;2023-07-20T09:28:24;99241.25;;;22.42;45.01
9893;BME280;4985;49.092;8.542;2023-07-20T09:30:51;99244.28;;;22.45;45.00
9893;BME280;4985;49.092;8.542;2023-07-20T09:33:22;99238.09;;;22.45;45.00
9893;BME280;4985;49.092;8.542;2023-07-20T09:35:49;99241.59;;;22.45;45.01
9893;BME280;4985;49.092;8.542;2023-07-20T09:38:15;99244.03;;;22.47;45.01
9893;BME280;4985;49.092;8.542;2023-07-20T09:40:42;99237.84;;;22.46;45.01
9893;BME280;4985;49.092;8.542;2023-07-20T09:43:09;99239.47;;;22.47;45.01
9893;BME280;4985;49.092;8.542;2023-07-20T09:45:39;99241.91;;;22.49;45.01
9893;BME280;4985;49.092;8.542;2023-07-20T09:48:07;99233.06;;;22.48;45.00
9893;BME280;4985;49.092;8.542;2023-07-20T09:50:39;99235.50;;;22.50;44.99
9893;BME280;4985;49.092;8.542;2023-07-20T09:53:07;99235.25;;;22.51;44.99
9893;BME280;4985;49.092;8.542;2023-07-20T09:55:35;99237.13;;;22.51;45.00
9893;BME280;4985;49.092;8.542;2023-07-20T09:58:03;99237.94;;;22.51;45.01
9893;BME280;4985;49.092;8.542;2023-07-20T10:00:32;99232.56;;;22.51;45.01
9893;BME280;4985;49.092;8.542;2023-07-20T10:03:03;99226.13;;;22.52;45.01
9893;BME280;4985;49.092;8.542;2023-07-20T10:05:32;99228.00;;;22.52;45.01
9893;BME280;4985;49.092;8.542;2023-07-20T10:08:02;99227.75;;;22.53;45.01
9893;BME280;4985;49.092;8.542;2023-07-20T10:10:31;99225.09;;;22.53;45.01
9893;BME280;4985;49.092;8.542;2023-07-20T10:13:00;99232.09;;;22.54;45.01
9893;BME280;4985;49.092;8.542;2023-07-20T10:15:29;99229.41;;;22.54;45.02
9893;BME280;4985;49.092;8.542;2023-07-20T10:18:04;99224.28;;;22.53;45.03
9893;BME280;4985;49.092;8.542;2023-07-20T10:20:35;99224.06;;;22.54;45.04
9893;BME280;4985;49.092;8.542;2023-07-20T10:23:04;99225.69;;;22.55;45.03
9893;BME280;4985;49.092;8.542;2023-07-20T10:25:31;99218.44;;;22.56;45.05
9893;BME280;4985;49.092;8.542;2023-07-20T10:27:58;99218.44;;;22.56;45.05
9893;BME280;4985;49.092;8.542;2023-07-20T10:30:26;99210.16;;;22.57;45.05
9893;BME280;4985;49.092;8.542;2023-07-20T10:32:53;99212.81;;;22.57;45.05
9893;BME280;4985;49.092;8.542;2023-07-20T10:35:20;99210.16;;;22.57;45.06
9893;BME280;4985;49.092;8.542;2023-07-20T10:37:50;99209.09;;;22.58;45.05
9893;BME280;4985;49.092;8.542;2023-07-20T10:40:27;99199.16;;;22.59;45.05
9893;BME280;4985;49.092;8.542;2023-07-20T10:43:00;99211.78;;;22.58;45.05
9893;BME280;4985;49.092;8.542;2023-07-20T10:45:34;99204.53;;;22.59;45.06
9893;BME280;4985;49.092;8.542;2023-07-20T10:48:03;99201.59;;;22.60;45.06
9893;BME280;4985;49.092;8.542;2023-07-20T10:50:30;99185.50;;;22.60;45.05
9893;BME280;4985;49.092;8.542;2023-07-20T10:53:10;99191.69;;;22.61;45.04
9893;BME280;4985;49.092;8.542;2023-07-20T10:55:39;99186.06;;;22.62;45.03
9893;BME280;4985;49.092;8.542;2023-07-20T10:58:09;99184.19;;;22.63;45.03
9893;BME280;4985;49.092;8.542;2023-07-20T11:00:36;99181.28;;;22.64;45.03
9893;BME280;4985;49.092;8.542;2023-07-20T11:03:04;99190.38;;;22.63;45.03
9893;BME280;4985;49.092;8.542;2023-07-20T11:05:38;99177.47;;;22.60;45.03
9893;BME280;4985;49.092;8.542;2023-07-20T11:08:09;99180.47;;;22.64;45.03
9893;BME280;4985;49.092;8.542;2023-07-20T11:10:35;99183.72;;;22.66;45.02
9893;BME280;4985;49.092;8.542;2023-07-20T11:13:20;99173.56;;;22.68;44.98
9893;BME280;4985;49.092;8.542;2023-07-20T11:16:01;99179.75;;;22.69;44.97
9893;BME280;4985;49.092;8.542;2023-07-20T11:18:28;99184.06;;;22.70;44.98
9893;BME280;4985;49.092;8.542;2023-07-20T11:20:55;99182.19;;;22.70;45.00
9893;BME280;4985;49.092;8.542;2023-07-20T11:23:22;99176.81;;;22.70;44.98
9893;BME280;4985;49.092;8.542;2023-07-20T11:25:49;99171.44;;;22.70;44.99
9893;BME280;4985;49.092;8.542;2023-07-20T11:28:16;99173.88;;;22.72;44.98
9893;BME280;4985;49.092;8.542;2023-07-20T11:30:44;99177.63;;;22.71;44.99
9893;BME280;4985;49.092;8.542;2023-07-20T11:33:11;99163.97;;;22.72;44.99
9893;BME280;4985;49.092;8.542;2023-07-20T11:35:42;99165.84;;;22.72;44.97
9893;BME280;4985;49.092;8.542;2023-07-20T11:38:08;99163.72;;;22.74;44.98
9893;BME280;4985;49.092;8.542;2023-07-20T11:40:35;99169.06;;;22.74;44.97
9893;BME280;4985;49.092;8.542;2023-07-20T11:43:02;99163.72;;;22.74;44.98
9893;BME280;4985;49.092;8.542;2023-07-20T11:45:28;99157.28;;;22.75;44.98
9893;BME280;4985;49.092;8.542;2023-07-20T11:47:59;99157.28;;;22.75;44.96
9893;BME280;4985;49.092;8.542;2023-07-20T11:50:26;99151.66;;;22.76;44.95
9893;BME280;4985;49.092;8.542;2023-07-20T11:52:53;99149.81;;;22.77;44.96
9893;BME280;4985;49.092;8.542;2023-07-20T11:55:20;99145.28;;;22.77;44.96
9893;BME280;4985;49.092;8.542;2023-07-20T11:58:01;99143.41;;;22.78;44.97
9893;BME280;4985;49.092;8.542;2023-07-20T12:00:27;99141.53;;;22.78;44.96
9893;BME280;4985;49.092;8.542;2023-07-20T12:02:54;99132.66;;;22.78;44.96
9893;BME280;4985;49.092;8.542;2023-07-20T12:05:23;99134.28;;;22.79;44.96
9893;BME280;4985;49.092;8.542;2023-07-20T12:07:51;99127.84;;;22.80;44.96
9893;BME280;4985;49.092;8.542;2023-07-20T12:10:24;99124.03;;;22.76;44.96
9893;BME280;4985;49.092;8.542;2023-07-20T12:12:51;99124.13;;;22.81;44.98
9893;BME280;4985;49.092;8.542;2023-07-20T12:15:20;99126.78;;;22.81;44.98
9893;BME280;4985;49.092;8.542;2023-07-20T12:17:50;99124.13;;;22.81;44.98
9893;BME280;4985;49.092;8.542;2023-07-20T12:20:27;99123.03;;;22.82;44.98
9893;BME280;4985;49.092;8.542;2023-07-20T12:22:57;99119.31;;;22.83;44.98
9893;BME280;4985;49.092;8.542;2023-07-20T12:25:32;99118.28;;;22.84;44.97
9893;BME280;4985;49.092;8.542;2023-07-20T12:28:00;99114.53;;;22.85;44.97
9893;BME280;4985;49.092;8.542;2023-07-20T12:30:28;99119.66;;;22.86;44.97
9893;BME280;4985;49.092;8.542;2023-07-20T12:32:54;99109.72;;;22.87;44.98
9893;BME280;4985;49.092;8.542;2023-07-20T12:35:21;99108.91;;;22.86;44.99
9893;BME280;4985;49.092;8.542;2023-07-20T12:37:49;99112.41;;;22.87;45.01
9893;BME280;4985;49.092;8.542;2023-07-20T12:40:16;99110.53;;;22.87;45.02
9893;BME280;4985;49.092;8.542;2023-07-20T12:42:43;99106.00;;;22.88;45.03
9893;BME280;4985;49.092;8.542;2023-07-20T12:45:10;99099.56;;;22.89;45.04
9893;BME280;4985;49.092;8.542;2023-07-20T12:47:37;99094.75;;;22.91;45.06
9893;BME280;4985;49.092;8.542;2023-07-20T12:50:04;99104.69;;;22.90;45.06
9893;BME280;4985;49.092;8.542;2023-07-20T12:52:31;99102.00;;;22.90;45.08
9893;BME280;4985;49.092;8.542;2023-07-20T12:54:59;99093.94;;;22.90;45.11
9893;BME280;4985;49.092;8.542;2023-07-20T12:57:26;99091.03;;;22.92;45.13
9893;BME280;4985;49.092;8.542;2023-07-20T12:59:53;99088.09;;;22.93;45.12
9893;BME280;4985;49.092;8.542;2023-07-20T13:02:19;99078.97;;;22.94;45.12
9893;BME280;4985;49.092;8.542;2023-07-20T13:04:46;99068.22;;;22.94;45.13
9893;BME280;4985;49.092;8.542;2023-07-20T13:07:12;99089.44;;;22.96;45.15
9893;BME280;4985;49.092;8.542;2023-07-20T13:09:39;99071.47;;;22.97;45.16
9893;BME280;4985;49.092;8.542;2023-07-20T13:12:08;99078.47;;;22.98;45.17
9893;BME280;4985;49.092;8.542;2023-07-20T13:14:35;99073.09;;;22.98;45.17
9893;BME280;4985;49.092;8.542;2023-07-20T13:17:01;99066.66;;;22.99;45.18
9893;BME280;4985;49.092;8.542;2023-07-20T13:19:28;99073.91;;;22.98;45.20
9893;BME280;4985;49.092;8.542;2023-07-20T13:21:54;99067.50;;;22.99;45.21
9893;BME280;4985;49.092;8.542;2023-07-20T13:24:21;99064.81;;;22.99;45.23
9893;BME280;4985;49.092;8.542;2023-07-20T13:26:47;99069.13;;;23.00;45.24
9893;BME280;4985;49.092;8.542;2023-07-20T13:29:15;99065.63;;;23.00;45.25